Time;durP1;ratioP1;P1;durP2;ratioP2;P2;SDS_P1;SDS_P2;PMS_P1;PMS_P2;Temp;Humidity;BMP_temperature;BMP_pressure;BME280_temperature;BME280_humidity;BME280_pressure;Samples;Min_cycle;Max_cycle;Signal;HPM_P1;HPM_P2
2022/08/16 00:00:38;;;;;;;;;;;18.50;99.90;;;;;;5075325;28;19928;-68
2022/08/16 00:03:04;;;;;;;;;;;18.50;99.90;;;;;;5086349;28;19912;-66
2022/08/16 00:05:30;;;;;;;;;;;18.40;99.90;;;;;;5084864;28;19912;-67
2022/08/16 00:07:55;;;;;;;;;;;18.30;99.90;;;;;;5082462;28;20357;-66
2022/08/16 00:10:22;;;;;;;;;;;18.20;99.90;;;;;;5082296;28;20649;-66
2022/08/16 00:12:49;;;;;;;;;;;18.10;99.90;;;;;;5081480;28;20285;-65
2022/08/16 00:15:17;;;;;;;;;;;18.20;99.90;;;;;;5080658;28;19916;-66
2022/08/16 00:17:43;;;;;;;;;;;18.30;99.90;;;;;;5063198;28;19916;-66
2022/08/16 00:20:09;;;;;;;;;;;18.30;99.90;;;;;;5081151;28;20251;-66
2022/08/16 00:22:36;;;;;;;;;;;18.20;99.90;;;;;;5085293;28;19920;-67
2022/08/16 00:25:03;;;;;;;;;;;18.20;99.90;;;;;;5080437;28;19916;-67
2022/08/16 00:27:29;;;;;;;;;;;18.20;99.90;;;;;;5085783;28;19923;-67
2022/08/16 00:29:54;;;;;;;;;;;18.10;99.90;;;;;;5090206;28;19912;-68
2022/08/16 00:32:20;;;;;;;;;;;18.10;99.90;;;;;;5090186;28;19908;-65
2022/08/16 00:34:45;;;;;;;;;;;18.10;99.90;;;;;;5087439;28;19912;-67
2022/08/16 00:37:12;;;;;;;;;;;18.10;99.90;;;;;;5068432;28;19966;-67
2022/08/16 00:39:38;;;;;;;;;;;18.10;99.90;;;;;;5086813;28;19934;-68
2022/08/16 00:42:03;;;;;;;;;;;18.10;99.90;;;;;;5085149;28;19928;-67
2022/08/16 00:44:29;;;;;;;;;;;18.20;99.90;;;;;;5070415;28;19912;-68
2022/08/16 00:46:56;;;;;;;;;;;18.20;99.90;;;;;;5085850;28;19912;-67
2022/08/16 00:49:23;;;;;;;;;;;18.20;99.90;;;;;;5090255;28;19926;-66
2022/08/16 00:51:50;;;;;;;;;;;18.10;99.90;;;;;;5084780;28;20351;-67
2022/08/16 00:54:16;;;;;;;;;;;18.10;99.90;;;;;;5062732;28;20003;-67
2022/08/16 00:56:44;;;;;;;;;;;18.00;99.90;;;;;;5087359;28;20006;-67
2022/08/16 00:59:11;;;;;;;;;;;18.10;99.90;;;;;;5086344;28;19912;-67
2022/08/16 01:01:37;;;;;;;;;;;18.10;99.90;;;;;;5081958;28;19931;-66
2022/08/16 01:04:05;;;;;;;;;;;18.00;99.90;;;;;;5088395;28;20525;-67
2022/08/16 01:06:30;;;;;;;;;;;18.00;99.90;;;;;;5088183;28;19922;-67
2022/08/16 01:08:57;;;;;;;;;;;17.90;99.90;;;;;;5086742;28;19999;-67
2022/08/16 01:11:23;;;;;;;;;;;17.90;99.90;;;;;;5082923;28;19962;-67
2022/08/16 01:13:51;;;;;;;;;;;17.90;99.90;;;;;;5087341;28;19961;-67
2022/08/16 01:16:19;;;;;;;;;;;17.90;99.90;;;;;;5086387;28;19926;-68
2022/08/16 01:19:03;;;;;;;;;;;17.90;99.90;;;;;;5089127;28;19916;-66
2022/08/16 01:21:35;;;;;;;;;;;17.90;99.90;;;;;;5089517;28;19935;-67
2022/08/16 01:24:09;;;;;;;;;;;17.80;99.90;;;;;;5083034;28;19927;-68
2022/08/16 01:26:35;;;;;;;;;;;17.80;99.90;;;;;;5088389;28;19916;-67
2022/08/16 01:29:03;;;;;;;;;;;17.80;99.90;;;;;;5094797;28;19974;-67
2022/08/16 01:31:29;;;;;;;;;;;17.80;99.90;;;;;;5087143;28;19912;-66
2022/08/16 01:33:54;;;;;;;;;;;17.70;99.90;;;;;;5084920;28;20519;-67
2022/08/16 01:36:20;;;;;;;;;;;17.60;99.90;;;;;;5085900;28;19912;-66
2022/08/16 01:38:48;;;;;;;;;;;17.60;99.90;;;;;;5073968;28;19983;-66
2022/08/16 01:41:15;;;;;;;;;;;17.50;99.90;;;;;;5075793;28;19928;-65
2022/08/16 01:43:42;;;;;;;;;;;17.50;99.90;;;;;;5091653;28;19919;-66
2022/08/16 01:46:17;;;;;;;;;;;17.50;99.90;;;;;;5092239;28;20374;-67
2022/08/16 01:48:43;;;;;;;;;;;17.50;99.90;;;;;;5087408;28;19920;-68
2022/08/16 01:51:09;;;;;;;;;;;17.60;99.90;;;;;;5093755;28;19916;-66
2022/08/16 01:53:35;;;;;;;;;;;17.70;99.90;;;;;;5094153;28;19912;-67
2022/08/16 01:56:01;;;;;;;;;;;17.70;99.90;;;;;;5087201;28;20321;-67
2022/08/16 01:58:26;;;;;;;;;;;17.60;99.90;;;;;;5089592;28;19935;-67
2022/08/16 02:00:52;;;;;;;;;;;17.70;99.90;;;;;;5090457;28;20023;-66
2022/08/16 02:03:18;;;;;;;;;;;17.70;99.90;;;;;;5091070;28;19958;-67
2022/08/16 02:05:43;;;;;;;;;;;17.90;99.90;;;;;;5090827;28;20289;-66
2022/08/16 02:08:09;;;;;;;;;;;18.10;99.90;;;;;;5087383;28;19977;-67
2022/08/16 02:10:35;;;;;;;;;;;18.10;99.90;;;;;;5087895;28;20009;-66
2022/08/16 02:13:02;;;;;;;;;;;18.00;99.90;;;;;;5091753;28;19916;-68
2022/08/16 02:15:29;;;;;;;;;;;18.10;99.90;;;;;;5090720;28;19916;-66
2022/08/16 02:17:55;;;;;;;;;;;18.10;99.90;;;;;;5097909;28;19939;-67
2022/08/16 02:20:21;;;;;;;;;;;18.10;99.90;;;;;;5092768;28;19920;-68
2022/08/16 02:22:47;;;;;;;;;;;18.10;99.90;;;;;;5099587;28;19935;-66
2022/08/16 02:25:14;;;;;;;;;;;18.10;99.90;;;;;;5094287;28;19920;-67
2022/08/16 02:27:41;;;;;;;;;;;18.10;99.90;;;;;;5073933;28;19963;-67
2022/08/16 02:30:08;;;;;;;;;;;18.20;99.90;;;;;;5086521;28;19916;-67
2022/08/16 02:32:34;;;;;;;;;;;18.30;99.90;;;;;;5082888;28;19916;-67
2022/08/16 02:34:59;;;;;;;;;;;18.20;99.90;;;;;;5081906;28;19920;-67
2022/08/16 02:37:25;;;;;;;;;;;18.20;99.90;;;;;;5089704;28;19916;-65
2022/08/16 02:39:50;;;;;;;;;;;18.20;99.90;;;;;;5086965;28;19916;-67
2022/08/16 02:42:18;;;;;;;;;;;18.20;99.90;;;;;;5087353;28;19961;-68
2022/08/16 02:44:43;;;;;;;;;;;18.10;99.90;;;;;;5084892;28;19912;-67
2022/08/16 02:47:09;;;;;;;;;;;18.20;99.90;;;;;;5083157;28;19934;-66
2022/08/16 02:49:35;;;;;;;;;;;18.20;99.90;;;;;;5086095;28;19916;-67
2022/08/16 02:52:01;;;;;;;;;;;18.20;99.90;;;;;;5082430;28;19916;-66
2022/08/16 02:54:27;;;;;;;;;;;18.20;99.90;;;;;;5073160;28;19919;-67
2022/08/16 02:56:53;;;;;;;;;;;18.20;99.90;;;;;;5086575;28;19923;-67
2022/08/16 02:59:18;;;;;;;;;;;18.10;99.90;;;;;;5084628;28;19912;-66
2022/08/16 03:01:44;;;;;;;;;;;18.20;99.90;;;;;;5080105;28;19944;-65
2022/08/16 03:04:10;;;;;;;;;;;18.10;99.90;;;;;;5086695;28;19916;-67
2022/08/16 03:06:35;;;;;;;;;;;18.10;99.90;;;;;;5088969;28;19918;-67
2022/08/16 03:09:02;;;;;;;;;;;18.20;99.90;;;;;;5086035;28;19919;-67
2022/08/16 03:11:28;;;;;;;;;;;18.30;99.90;;;;;;5069246;28;19912;-66
2022/08/16 03:13:54;;;;;;;;;;;18.30;99.90;;;;;;5086890;28;19959;-66
2022/08/16 03:16:20;;;;;;;;;;;18.30;99.90;;;;;;5086080;28;20339;-68
2022/08/16 03:18:46;;;;;;;;;;;18.20;99.90;;;;;;5082089;28;19946;-67
2022/08/16 03:21:11;;;;;;;;;;;18.20;99.90;;;;;;5069510;28;19947;-66
2022/08/16 03:23:37;;;;;;;;;;;18.30;99.90;;;;;;5084614;28;19974;-66
2022/08/16 03:26:03;;;;;;;;;;;18.30;99.90;;;;;;5090441;28;20399;-68
2022/08/16 03:28:29;;;;;;;;;;;18.30;99.90;;;;;;5084856;28;19951;-67
2022/08/16 03:30:54;;;;;;;;;;;18.30;99.90;;;;;;5073269;28;19944;-67
2022/08/16 03:33:20;;;;;;;;;;;18.30;99.90;;;;;;5090491;28;19912;-66
2022/08/16 03:35:45;;;;;;;;;;;18.40;99.90;;;;;;5087269;28;20298;-67
2022/08/16 03:38:13;;;;;;;;;;;18.40;99.90;;;;;;5084997;28;19916;-66
2022/08/16 03:40:39;;;;;;;;;;;18.40;99.90;;;;;;5087003;28;19930;-66
2022/08/16 03:43:09;;;;;;;;;;;18.20;99.90;;;;;;5083732;28;19916;-66
2022/08/16 03:45:36;;;;;;;;;;;18.10;99.90;;;;;;5080808;28;19951;-65
2022/08/16 03:48:03;;;;;;;;;;;17.90;99.90;;;;;;5086237;28;19919;-66
2022/08/16 03:50:29;;;;;;;;;;;17.90;99.90;;;;;;5086969;28;20253;-66
2022/08/16 03:52:55;;;;;;;;;;;17.80;99.90;;;;;;5087256;28;19912;-67
2022/08/16 03:55:20;;;;;;;;;;;17.80;99.90;;;;;;5083010;28;20079;-66
2022/08/16 03:57:48;;;;;;;;;;;17.80;99.90;;;;;;5087932;28;19912;-67
2022/08/16 04:00:19;;;;;;;;;;;17.80;99.90;;;;;;5080964;28;19946;-66
2022/08/16 04:02:45;;;;;;;;;;;17.80;99.90;;;;;;5083131;28;19962;-67
2022/08/16 04:05:11;;;;;;;;;;;17.80;99.90;;;;;;5081981;28;20003;-66
2022/08/16 04:07:37;;;;;;;;;;;17.80;99.90;;;;;;5059943;28;19982;-66
2022/08/16 04:10:04;;;;;;;;;;;17.80;99.90;;;;;;5069862;28;19923;-69
2022/08/16 04:12:29;;;;;;;;;;;17.80;99.90;;;;;;5083967;28;19973;-66
2022/08/16 04:14:55;;;;;;;;;;;17.80;99.90;;;;;;5084301;28;19916;-66
2022/08/16 04:17:20;;;;;;;;;;;17.80;99.90;;;;;;5084056;28;19916;-67
2022/08/16 04:19:46;;;;;;;;;;;17.90;99.90;;;;;;5081869;28;19974;-68
2022/08/16 04:22:15;;;;;;;;;;;18.00;99.90;;;;;;5075802;28;20010;-67
2022/08/16 04:24:41;;;;;;;;;;;18.00;99.90;;;;;;5077078;28;19924;-66
2022/08/16 04:27:07;;;;;;;;;;;17.90;99.90;;;;;;5096289;28;19923;-67
2022/08/16 04:29:32;;;;;;;;;;;17.90;99.90;;;;;;5092362;28;20336;-67
2022/08/16 04:31:59;;;;;;;;;;;17.90;99.90;;;;;;5095029;28;19924;-67
2022/08/16 04:34:26;;;;;;;;;;;17.90;99.90;;;;;;5094674;28;19947;-67
2022/08/16 04:36:51;;;;;;;;;;;17.90;99.90;;;;;;5090237;28;19916;-68
2022/08/16 04:39:17;;;;;;;;;;;18.00;99.90;;;;;;5086214;28;19912;-67
2022/08/16 04:41:42;;;;;;;;;;;18.00;99.90;;;;;;5090353;28;19920;-68
2022/08/16 04:44:08;;;;;;;;;;;18.00;99.90;;;;;;5090373;28;20378;-67
2022/08/16 04:46:34;;;;;;;;;;;18.00;99.90;;;;;;5080268;28;19923;-67
2022/08/16 04:48:59;;;;;;;;;;;18.00;99.90;;;;;;5085143;28;19922;-67
2022/08/16 04:51:25;;;;;;;;;;;17.90;99.90;;;;;;5091959;28;19940;-66
2022/08/16 04:53:51;;;;;;;;;;;17.90;99.90;;;;;;5085688;28;19912;-66
2022/08/16 04:56:17;;;;;;;;;;;18.00;99.90;;;;;;5089415;28;19923;-66
2022/08/16 04:58:43;;;;;;;;;;;18.10;99.90;;;;;;5086191;28;20108;-67
2022/08/16 05:01:09;;;;;;;;;;;18.20;99.90;;;;;;5090866;28;19924;-67
2022/08/16 05:03:35;;;;;;;;;;;18.20;99.90;;;;;;5091647;28;19955;-67
2022/08/16 05:06:00;;;;;;;;;;;18.30;99.90;;;;;;5084313;28;20340;-68
2022/08/16 05:08:26;;;;;;;;;;;18.20;99.90;;;;;;5092305;28;19912;-67
2022/08/16 05:10:52;;;;;;;;;;;18.20;99.90;;;;;;5090817;28;19995;-67
2022/08/16 05:13:18;;;;;;;;;;;18.20;99.90;;;;;;5084838;28;19996;-67
2022/08/16 05:15:44;;;;;;;;;;;18.10;99.90;;;;;;5089201;28;19912;-68
2022/08/16 05:18:10;;;;;;;;;;;18.00;99.90;;;;;;5096418;28;20396;-67
2022/08/16 05:20:35;;;;;;;;;;;18.00;99.90;;;;;;5069691;28;19931;-67
2022/08/16 05:23:01;;;;;;;;;;;18.00;99.90;;;;;;5087196;28;19924;-67
2022/08/16 05:25:29;;;;;;;;;;;18.00;99.90;;;;;;5090586;28;19958;-68
2022/08/16 05:27:56;;;;;;;;;;;18.00;99.90;;;;;;5094135;28;19912;-67
2022/08/16 05:30:22;;;;;;;;;;;18.00;99.90;;;;;;5090870;28;19966;-67
2022/08/16 05:32:47;;;;;;;;;;;17.90;99.90;;;;;;5080194;28;19912;-67
2022/08/16 05:35:13;;;;;;;;;;;18.00;99.90;;;;;;5094333;28;22201;-67
2022/08/16 05:37:39;;;;;;;;;;;18.00;99.90;;;;;;5088137;28;19912;-67
2022/08/16 05:40:08;;;;;;;;;;;18.00;99.90;;;;;;5091536;28;19923;-66
2022/08/16 05:42:34;;;;;;;;;;;18.00;99.90;;;;;;5087301;28;19912;-65
2022/08/16 05:45:00;;;;;;;;;;;18.00;99.90;;;;;;5080592;28;19931;-68
2022/08/16 05:47:25;;;;;;;;;;;18.00;99.90;;;;;;5067867;28;19912;-67
2022/08/16 05:49:52;;;;;;;;;;;18.00;99.90;;;;;;5091478;28;19920;-66
2022/08/16 05:52:18;;;;;;;;;;;18.00;99.90;;;;;;5089189;28;19989;-67
2022/08/16 05:54:44;;;;;;;;;;;18.00;99.90;;;;;;5081370;28;19912;-68
2022/08/16 05:57:10;;;;;;;;;;;18.10;99.90;;;;;;5091079;28;19966;-67
2022/08/16 05:59:35;;;;;;;;;;;18.20;99.90;;;;;;5088513;28;19912;-67
2022/08/16 06:02:01;;;;;;;;;;;18.20;99.90;;;;;;5088787;28;20271;-67
2022/08/16 06:04:27;;;;;;;;;;;18.20;99.90;;;;;;5086272;28;20085;-67
2022/08/16 06:06:53;;;;;;;;;;;18.20;99.90;;;;;;5078416;28;19912;-66
2022/08/16 06:09:18;;;;;;;;;;;18.20;99.90;;;;;;5088263;28;19920;-67
2022/08/16 06:11:44;;;;;;;;;;;18.30;99.90;;;;;;5085453;28;19934;-67
2022/08/16 06:14:10;;;;;;;;;;;18.30;99.90;;;;;;5087456;28;19926;-68
2022/08/16 06:16:35;;;;;;;;;;;18.30;99.90;;;;;;5085830;28;19912;-68
2022/08/16 06:19:01;;;;;;;;;;;18.30;99.90;;;;;;5088886;28;20322;-67
2022/08/16 06:21:26;;;;;;;;;;;18.30;99.90;;;;;;5064892;28;19916;-67
2022/08/16 06:23:52;;;;;;;;;;;18.20;99.90;;;;;;5079065;28;19978;-66
2022/08/16 06:26:18;;;;;;;;;;;18.30;99.90;;;;;;5092215;28;19912;-67
2022/08/16 06:28:44;;;;;;;;;;;18.20;99.90;;;;;;5062677;28;19959;-67
2022/08/16 06:31:10;;;;;;;;;;;18.20;99.90;;;;;;5086618;28;19956;-68
2022/08/16 06:33:36;;;;;;;;;;;18.30;99.90;;;;;;5081943;28;19916;-66
2022/08/16 06:36:01;;;;;;;;;;;18.40;99.90;;;;;;5089685;28;19916;-66
2022/08/16 06:38:27;;;;;;;;;;;18.50;99.90;;;;;;5090830;28;19991;-67
2022/08/16 06:40:53;;;;;;;;;;;18.70;99.90;;;;;;5085293;28;19924;-67
2022/08/16 06:43:19;;;;;;;;;;;18.90;99.90;;;;;;5071935;28;19927;-67
2022/08/16 06:45:45;;;;;;;;;;;18.90;99.90;;;;;;5090427;28;20327;-67
2022/08/16 06:48:11;;;;;;;;;;;19.00;99.90;;;;;;5088392;28;19916;-66
2022/08/16 06:50:37;;;;;;;;;;;19.00;99.90;;;;;;5081325;28;19912;-68
2022/08/16 06:53:03;;;;;;;;;;;19.00;99.90;;;;;;5080847;28;20003;-67
2022/08/16 06:55:28;;;;;;;;;;;18.90;99.90;;;;;;5086713;28;20284;-67
2022/08/16 06:57:54;;;;;;;;;;;18.80;99.90;;;;;;5088807;28;19916;-67
2022/08/16 07:00:20;;;;;;;;;;;18.80;99.90;;;;;;5090613;28;19942;-68
2022/08/16 07:02:46;;;;;;;;;;;18.80;99.90;;;;;;5096477;28;19966;-68
2022/08/16 07:05:13;;;;;;;;;;;18.80;99.90;;;;;;5087426;28;19924;-68
2022/08/16 07:07:39;;;;;;;;;;;18.70;99.90;;;;;;5088210;28;20506;-67
2022/08/16 07:10:07;;;;;;;;;;;18.90;99.90;;;;;;5092860;28;19943;-68
2022/08/16 07:12:32;;;;;;;;;;;18.90;99.90;;;;;;5094084;28;20266;-69
2022/08/16 07:14:59;;;;;;;;;;;18.80;99.90;;;;;;5086065;28;19965;-67
2022/08/16 07:17:27;;;;;;;;;;;18.90;99.90;;;;;;5073627;28;19938;-67
2022/08/16 07:19:53;;;;;;;;;;;18.90;99.90;;;;;;5086482;28;19928;-68
2022/08/16 07:22:19;;;;;;;;;;;19.00;99.90;;;;;;5091183;28;19920;-68
2022/08/16 07:24:45;;;;;;;;;;;19.00;99.90;;;;;;5085349;28;20400;-67
2022/08/16 07:27:11;;;;;;;;;;;19.10;99.90;;;;;;5080832;28;19916;-68
2022/08/16 07:29:37;;;;;;;;;;;19.20;99.90;;;;;;5087150;28;19913;-67
2022/08/16 07:32:03;;;;;;;;;;;19.20;99.90;;;;;;5090918;28;21338;-68
2022/08/16 07:34:28;;;;;;;;;;;19.40;99.90;;;;;;5085522;28;19912;-69
2022/08/16 07:36:54;;;;;;;;;;;19.50;99.90;;;;;;5097804;28;19908;-68
2022/08/16 07:39:20;;;;;;;;;;;19.50;99.90;;;;;;5079737;28;20362;-68
2022/08/16 07:41:45;;;;;;;;;;;19.40;99.90;;;;;;5087563;28;19920;-67
2022/08/16 07:44:11;;;;;;;;;;;19.40;99.90;;;;;;5082674;28;19920;-68
2022/08/16 07:46:36;;;;;;;;;;;19.40;99.90;;;;;;5085119;28;19912;-69
2022/08/16 07:49:03;;;;;;;;;;;19.40;99.90;;;;;;5082774;28;19916;-67
2022/08/16 07:51:31;;;;;;;;;;;19.50;99.90;;;;;;5083018;28;19986;-68
2022/08/16 07:53:57;;;;;;;;;;;19.40;99.90;;;;;;5084664;28;19961;-68
2022/08/16 07:56:23;;;;;;;;;;;19.50;99.90;;;;;;5082732;28;19912;-67
2022/08/16 07:58:48;;;;;;;;;;;19.40;99.90;;;;;;5087737;28;19956;-67
2022/08/16 08:01:14;;;;;;;;;;;19.50;99.90;;;;;;5078278;28;20011;-67
2022/08/16 08:03:41;;;;;;;;;;;19.60;99.90;;;;;;5081963;28;20018;-67
2022/08/16 08:06:07;;;;;;;;;;;19.60;99.90;;;;;;5081570;28;19920;-67
2022/08/16 08:08:33;;;;;;;;;;;19.80;99.90;;;;;;5079218;28;20347;-66
2022/08/16 08:10:58;;;;;;;;;;;19.90;99.90;;;;;;5070077;28;19913;-68
2022/08/16 08:13:24;;;;;;;;;;;19.90;99.90;;;;;;5073678;28;19912;-66
2022/08/16 08:15:50;;;;;;;;;;;19.90;99.90;;;;;;5074995;28;19916;-67
2022/08/16 08:18:15;;;;;;;;;;;19.80;99.90;;;;;;5082028;28;19912;-65
2022/08/16 08:20:44;;;;;;;;;;;19.90;99.90;;;;;;5072686;28;19920;-66
2022/08/16 08:23:11;;;;;;;;;;;20.00;99.90;;;;;;5084875;28;19965;-66
2022/08/16 08:25:40;;;;;;;;;;;20.00;99.90;;;;;;5055978;28;19916;-67
2022/08/16 08:28:06;;;;;;;;;;;20.20;99.90;;;;;;5073021;28;19915;-68
2022/08/16 08:30:32;;;;;;;;;;;20.20;99.90;;;;;;5082432;28;20014;-66
2022/08/16 08:32:57;;;;;;;;;;;20.40;99.90;;;;;;5058499;28;19963;-66
2022/08/16 08:35:24;;;;;;;;;;;20.60;99.90;;;;;;5080937;28;19919;-67
2022/08/16 08:37:50;;;;;;;;;;;20.60;99.90;;;;;;5088661;28;19913;-69
2022/08/16 08:40:16;;;;;;;;;;;20.70;99.90;;;;;;5085047;28;19934;-68
2022/08/16 08:42:43;;;;;;;;;;;20.90;99.90;;;;;;5090695;28;20002;-68
2022/08/16 08:45:10;;;;;;;;;;;21.20;99.90;;;;;;5082958;28;19908;-67
2022/08/16 08:47:36;;;;;;;;;;;21.20;99.90;;;;;;5077942;28;19912;-66
2022/08/16 08:50:03;;;;;;;;;;;21.10;99.90;;;;;;5074857;28;19913;-68
2022/08/16 08:52:28;;;;;;;;;;;21.10;99.90;;;;;;5083276;28;19946;-67
2022/08/16 08:54:54;;;;;;;;;;;21.10;99.90;;;;;;5085961;28;20353;-66
2022/08/16 08:57:20;;;;;;;;;;;21.20;99.90;;;;;;5066846;28;19950;-65
2022/08/16 08:59:46;;;;;;;;;;;21.30;99.90;;;;;;5080121;28;20377;-67
2022/08/16 09:02:13;;;;;;;;;;;21.40;99.90;;;;;;5080654;28;20324;-67
2022/08/16 09:04:38;;;;;;;;;;;21.70;99.90;;;;;;5083369;28;19957;-67
2022/08/16 09:07:04;;;;;;;;;;;21.90;99.90;;;;;;5093672;28;19938;-68
2022/08/16 09:09:30;;;;;;;;;;;22.10;99.90;;;;;;5088655;28;19963;-68
2022/08/16 09:11:56;;;;;;;;;;;22.00;99.90;;;;;;5085678;28;19951;-67
2022/08/16 09:14:23;;;;;;;;;;;22.00;99.90;;;;;;5084730;28;20435;-67
2022/08/16 09:16:49;;;;;;;;;;;22.00;99.90;;;;;;5092365;28;19912;-67
2022/08/16 09:19:15;;;;;;;;;;;22.10;99.90;;;;;;5083141;28;19951;-67
2022/08/16 09:21:41;;;;;;;;;;;22.30;99.90;;;;;;5085337;28;19928;-65
2022/08/16 09:24:07;;;;;;;;;;;22.40;99.90;;;;;;5089465;28;20369;-67
2022/08/16 09:26:32;;;;;;;;;;;22.60;99.90;;;;;;5088442;28;20376;-67
2022/08/16 09:28:58;;;;;;;;;;;22.70;99.90;;;;;;5079721;28;20350;-68
2022/08/16 09:31:23;;;;;;;;;;;22.70;99.90;;;;;;5089587;28;19935;-67
2022/08/16 09:33:49;;;;;;;;;;;22.80;99.90;;;;;;5078264;28;19924;-66
2022/08/16 09:36:15;;;;;;;;;;;22.60;99.90;;;;;;5076150;28;20006;-67
2022/08/16 09:38:41;;;;;;;;;;;22.50;99.90;;;;;;5090749;28;20163;-68
2022/08/16 09:41:09;;;;;;;;;;;22.70;99.90;;;;;;5076735;28;19932;-69
2022/08/16 09:43:35;;;;;;;;;;;23.00;99.90;;;;;;5074035;28;20377;-67
2022/08/16 09:46:02;;;;;;;;;;;23.10;99.90;;;;;;5074454;28;19912;-66
2022/08/16 09:48:27;;;;;;;;;;;23.30;99.90;;;;;;5089196;28;19916;-69
2022/08/16 09:50:53;;;;;;;;;;;23.40;99.90;;;;;;5069972;28;20022;-67
2022/08/16 09:53:21;;;;;;;;;;;23.20;99.90;;;;;;5081393;28;20008;-68
2022/08/16 09:55:48;;;;;;;;;;;23.50;99.90;;;;;;5082468;28;19912;-68
2022/08/16 09:58:14;;;;;;;;;;;23.70;99.90;;;;;;5081936;28;20401;-67
2022/08/16 10:00:43;;;;;;;;;;;24.00;99.90;;;;;;5083112;28;19974;-67
2022/08/16 10:03:08;;;;;;;;;;;24.00;99.90;;;;;;5090335;28;19999;-67
2022/08/16 10:05:36;;;;;;;;;;;23.80;99.90;;;;;;5081538;28;19944;-68
2022/08/16 10:08:03;;;;;;;;;;;23.50;99.90;;;;;;5089285;28;19912;-67
2022/08/16 10:10:28;;;;;;;;;;;23.20;99.90;;;;;;5081998;28;19938;-67
2022/08/16 10:13:13;;;;;;;;;;;23.20;99.90;;;;;;5087855;28;19916;-68
2022/08/16 10:15:41;;;;;;;;;;;23.30;99.90;;;;;;5089547;28;19969;-67
2022/08/16 10:18:08;;;;;;;;;;;23.20;99.90;;;;;;5089094;28;19912;-68
2022/08/16 10:20:38;;;;;;;;;;;23.00;99.90;;;;;;5090096;28;19928;-66
2022/08/16 10:23:06;;;;;;;;;;;23.00;99.90;;;;;;5092045;28;19999;-66
2022/08/16 10:25:32;;;;;;;;;;;23.10;99.90;;;;;;5084515;28;20069;-67
2022/08/16 10:27:59;;;;;;;;;;;23.10;99.90;;;;;;5087086;28;19916;-67
2022/08/16 10:30:24;;;;;;;;;;;23.10;99.90;;;;;;5067332;28;19919;-67
2022/08/16 10:32:50;;;;;;;;;;;23.20;99.90;;;;;;5085506;28;19912;-67
2022/08/16 10:35:15;;;;;;;;;;;23.40;99.90;;;;;;5087293;28;19913;-67
2022/08/16 10:37:41;;;;;;;;;;;23.50;99.90;;;;;;5071342;28;19921;-69
2022/08/16 10:40:09;;;;;;;;;;;23.40;99.90;;;;;;5082764;28;19912;-68
2022/08/16 10:42:34;;;;;;;;;;;23.60;99.90;;;;;;5086855;28;19939;-69
2022/08/16 10:45:01;;;;;;;;;;;23.80;99.90;;;;;;5076929;28;19912;-68
2022/08/16 10:47:28;;;;;;;;;;;23.90;99.90;;;;;;5079394;28;20200;-66
2022/08/16 10:49:54;;;;;;;;;;;23.90;99.90;;;;;;5086601;28;19920;-66
2022/08/16 10:52:21;;;;;;;;;;;23.80;99.90;;;;;;5075060;28;20484;-69
2022/08/16 10:54:47;;;;;;;;;;;23.80;99.90;;;;;;5063241;28;19916;-69
2022/08/16 10:57:13;;;;;;;;;;;23.60;99.90;;;;;;5082811;28;19912;-66
2022/08/16 10:59:40;;;;;;;;;;;23.30;99.90;;;;;;5070120;28;20687;-68
2022/08/16 11:02:06;;;;;;;;;;;23.10;99.90;;;;;;5079997;28;19921;-68
2022/08/16 11:04:31;;;;;;;;;;;23.00;99.90;;;;;;5079745;28;20083;-68
2022/08/16 11:06:57;;;;;;;;;;;22.80;99.90;;;;;;5080569;28;19952;-68
2022/08/16 11:09:23;;;;;;;;;;;22.80;99.90;;;;;;5076907;28;20033;-67
2022/08/16 11:11:48;;;;;;;;;;;22.60;99.90;;;;;;5078735;28;19912;-69
2022/08/16 11:14:15;;;;;;;;;;;22.50;99.90;;;;;;5078730;28;19938;-67
2022/08/16 11:16:41;;;;;;;;;;;22.70;99.90;;;;;;5080108;28;20003;-68
2022/08/16 11:19:07;;;;;;;;;;;22.80;99.90;;;;;;5082103;28;19944;-66
2022/08/16 11:21:33;;;;;;;;;;;23.00;99.90;;;;;;5084472;28;19920;-68
2022/08/16 11:23:58;;;;;;;;;;;23.20;99.90;;;;;;5093187;28;19927;-68
2022/08/16 11:26:24;;;;;;;;;;;23.40;99.90;;;;;;5087992;28;19912;-68
2022/08/16 11:28:49;;;;;;;;;;;23.50;99.90;;;;;;5082654;28;19912;-67
2022/08/16 11:31:16;;;;;;;;;;;23.50;99.90;;;;;;5081290;28;20265;-68
2022/08/16 11:33:41;;;;;;;;;;;23.50;99.90;;;;;;5065112;28;19994;-67
2022/08/16 11:36:07;;;;;;;;;;;23.70;99.90;;;;;;5090379;28;19920;-67
2022/08/16 11:38:33;;;;;;;;;;;23.90;99.90;;;;;;5083969;28;20393;-69
2022/08/16 11:41:00;;;;;;;;;;;24.00;99.90;;;;;;5063545;28;19924;-67
2022/08/16 11:43:27;;;;;;;;;;;24.00;99.90;;;;;;5083006;28;20044;-67
2022/08/16 11:45:53;;;;;;;;;;;24.10;99.90;;;;;;5074319;28;19912;-67
2022/08/16 11:48:19;;;;;;;;;;;24.00;99.90;;;;;;5079691;28;19916;-67
2022/08/16 11:50:45;;;;;;;;;;;24.00;99.90;;;;;;5084468;28;19912;-67
2022/08/16 11:53:11;;;;;;;;;;;24.20;99.90;;;;;;5088039;28;20361;-66
2022/08/16 11:55:38;;;;;;;;;;;24.50;99.90;;;;;;5080731;28;19956;-67
2022/08/16 11:58:05;;;;;;;;;;;24.80;99.90;;;;;;5081197;28;19916;-67
2022/08/16 12:00:32;;;;;;;;;;;25.10;99.90;;;;;;5086874;28;20057;-68
2022/08/16 12:02:57;;;;;;;;;;;24.90;99.90;;;;;;5066438;28;19939;-66
2022/08/16 12:05:23;;;;;;;;;;;24.80;99.90;;;;;;5084990;28;20267;-66
2022/08/16 12:07:49;;;;;;;;;;;24.90;99.90;;;;;;5077780;28;19948;-67
2022/08/16 12:10:17;;;;;;;;;;;25.40;99.90;;;;;;5078644;28;20694;-66
2022/08/16 12:12:43;;;;;;;;;;;25.80;99.90;;;;;;5078971;28;19916;-67
2022/08/16 12:15:09;;;;;;;;;;;25.90;99.90;;;;;;5075143;28;19913;-65
2022/08/16 12:17:35;;;;;;;;;;;25.50;99.90;;;;;;5075017;28;20294;-67
2022/08/16 12:20:03;;;;;;;;;;;25.20;99.90;;;;;;5057728;28;20050;-66
2022/08/16 12:22:30;;;;;;;;;;;25.30;99.90;;;;;;5072242;28;19923;-67
2022/08/16 12:24:55;;;;;;;;;;;25.00;99.90;;;;;;5079333;28;20344;-66
2022/08/16 12:27:22;;;;;;;;;;;24.70;99.90;;;;;;5072149;28;19977;-66
2022/08/16 12:29:50;;;;;;;;;;;24.80;99.90;;;;;;5058843;28;19923;-67
2022/08/16 12:32:15;;;;;;;;;;;25.10;99.90;;;;;;5074147;28;20016;-67
2022/08/16 12:34:41;;;;;;;;;;;25.30;99.90;;;;;;5076446;28;20011;-68
2022/08/16 12:37:06;;;;;;;;;;;25.20;99.90;;;;;;5077844;28;19962;-66
2022/08/16 12:39:32;;;;;;;;;;;25.20;99.90;;;;;;5074794;28;19942;-66
2022/08/16 12:41:58;;;;;;;;;;;25.20;99.90;;;;;;5078479;28;19920;-67
2022/08/16 12:44:25;;;;;;;;;;;25.00;99.90;;;;;;5073841;28;20261;-67
2022/08/16 12:48:56;;;;;;;;;;;24.70;99.90;;;;;;5076253;28;20040;-67
2022/08/16 12:49:37;;;;;;;;;;;24.80;99.90;;;;;;5075270;28;20767;-67
2022/08/16 12:52:03;;;;;;;;;;;24.70;99.90;;;;;;5071254;28;20541;-67
2022/08/16 12:54:29;;;;;;;;;;;24.70;99.90;;;;;;5075092;28;19916;-66
2022/08/16 12:56:55;;;;;;;;;;;24.40;99.90;;;;;;5075004;28;19928;-66
2022/08/16 12:59:21;;;;;;;;;;;24.30;99.90;;;;;;5070946;28;20262;-66
2022/08/16 13:01:47;;;;;;;;;;;24.50;99.90;;;;;;5077036;28;19928;-67
2022/08/16 13:04:13;;;;;;;;;;;24.70;99.90;;;;;;5074916;28;19912;-67
2022/08/16 13:06:40;;;;;;;;;;;24.70;99.90;;;;;;5070920;28;19995;-66
2022/08/16 13:09:18;;;;;;;;;;;25.10;99.90;;;;;;5070155;28;19912;-67
2022/08/16 13:11:47;;;;;;;;;;;25.40;99.90;;;;;;5078282;28;19912;-66
2022/08/16 13:14:13;;;;;;;;;;;25.60;99.90;;;;;;5065414;28;19973;-66
2022/08/16 13:16:40;;;;;;;;;;;25.60;99.90;;;;;;5071934;28;19920;-66
2022/08/16 13:19:06;;;;;;;;;;;25.50;99.90;;;;;;5074110;28;20281;-67
2022/08/16 13:21:31;;;;;;;;;;;25.40;97.60;;;;;;5075691;28;19924;-66
2022/08/16 13:23:57;;;;;;;;;;;25.50;96.10;;;;;;5070150;28;19977;-67
2022/08/16 13:26:23;;;;;;;;;;;25.50;95.20;;;;;;5065900;28;20006;-66
2022/08/16 13:28:49;;;;;;;;;;;25.60;94.10;;;;;;5075026;28;20011;-68
2022/08/16 13:31:15;;;;;;;;;;;25.60;92.90;;;;;;5076761;28;20018;-68
2022/08/16 13:33:40;;;;;;;;;;;25.70;92.40;;;;;;5058239;28;19951;-67
2022/08/16 13:36:08;;;;;;;;;;;25.60;91.40;;;;;;5080394;28;20347;-67
2022/08/16 13:38:34;;;;;;;;;;;25.60;90.00;;;;;;5078412;28;19919;-67
2022/08/16 13:41:01;;;;;;;;;;;25.60;88.50;;;;;;5078711;28;20301;-68
2022/08/16 13:43:27;;;;;;;;;;;25.80;88.50;;;;;;5076549;28;19912;-66
2022/08/16 13:45:55;;;;;;;;;;;25.60;85.60;;;;;;5080729;28;19919;-66
2022/08/16 13:48:20;;;;;;;;;;;26.00;84.50;;;;;;5081291;28;19923;-67
2022/08/16 13:50:46;;;;;;;;;;;26.30;84.10;;;;;;5077825;28;20312;-67
2022/08/16 13:53:11;;;;;;;;;;;26.30;81.00;;;;;;5077546;28;20328;-66
2022/08/16 13:55:37;;;;;;;;;;;26.20;79.80;;;;;;5081125;28;20026;-65
2022/08/16 13:58:02;;;;;;;;;;;26.30;79.10;;;;;;5068716;28;19916;-67
2022/08/16 14:00:28;;;;;;;;;;;26.40;77.70;;;;;;5081125;28;19919;-67
2022/08/16 14:02:54;;;;;;;;;;;26.20;79.10;;;;;;5064380;28;19964;-66
2022/08/16 14:05:19;;;;;;;;;;;25.90;80.80;;;;;;5081523;28;19913;-64
2022/08/16 14:07:45;;;;;;;;;;;25.00;86.80;;;;;;5078632;28;20327;-67
2022/08/16 14:10:11;;;;;;;;;;;24.50;90.60;;;;;;5072603;28;19920;-67